sensor_id;sensor_type;location;lat;lon;timestamp;P1;durP1;ratioP1;P2;durP2;ratioP2
29240;SDS011;16268;49.880;8.648;2022-12-07T00:03:33;14.10;;;9.15;;
29240;SDS011;16268;49.880;8.648;2022-12-07T00:05:59;18.10;;;10.77;;
29240;SDS011;16268;49.880;8.648;2022-12-07T00:08:25;15.63;;;9.70;;
29240;SDS011;16268;49.880;8.648;2022-12-07T00:10:51;15.95;;;10.45;;
29240;SDS011;16268;49.880;8.648;2022-12-07T00:13:17;17.02;;;10.05;;
29240;SDS011;16268;49.880;8.648;2022-12-07T00:15:43;16.17;;;9.73;;
29240;SDS011;16268;49.880;8.648;2022-12-07T00:18:09;17.75;;;10.45;;
29240;SDS011;16268;49.880;8.648;2022-12-07T00:20:34;18.48;;;9.40;;
29240;SDS011;16268;49.880;8.648;2022-12-07T00:23:00;15.27;;;9.57;;
29240;SDS011;16268;49.880;8.648;2022-12-07T00:25:26;16.17;;;10.50;;
29240;SDS011;16268;49.880;8.648;2022-12-07T00:27:52;16.25;;;9.95;;
29240;SDS011;16268;49.880;8.648;2022-12-07T00:30:20;16.70;;;9.70;;
29240;SDS011;16268;49.880;8.648;2022-12-07T00:32:46;17.08;;;10.60;;
29240;SDS011;16268;49.880;8.648;2022-12-07T00:35:11;17.70;;;10.38;;
29240;SDS011;16268;49.880;8.648;2022-12-07T00:37:37;17.48;;;9.80;;
29240;SDS011;16268;49.880;8.648;2022-12-07T00:40:03;15.75;;;10.07;;
29240;SDS011;16268;49.880;8.648;2022-12-07T00:42:29;16.70;;;10.48;;
29240;SDS011;16268;49.880;8.648;2022-12-07T00:44:55;16.55;;;10.05;;
29240;SDS011;16268;49.880;8.648;2022-12-07T00:47:20;16.70;;;9.65;;
29240;SDS011;16268;49.880;8.648;2022-12-07T00:49:46;15.68;;;9.63;;
29240;SDS011;16268;49.880;8.648;2022-12-07T00:52:11;15.70;;;8.98;;
29240;SDS011;16268;49.880;8.648;2022-12-07T00:54:37;15.15;;;9.93;;
29240;SDS011;16268;49.880;8.648;2022-12-07T00:57:02;15.90;;;10.02;;
29240;SDS011;16268;49.880;8.648;2022-12-07T00:59:28;17.67;;;10.27;;
29240;SDS011;16268;49.880;8.648;2022-12-07T01:01:53;17.85;;;10.32;;
29240;SDS011;16268;49.880;8.648;2022-12-07T01:04:19;17.75;;;10.05;;
29240;SDS011;16268;49.880;8.648;2022-12-07T01:06:45;17.92;;;10.15;;
29240;SDS011;16268;49.880;8.648;2022-12-07T01:09:10;14.15;;;9.57;;
29240;SDS011;16268;49.880;8.648;2022-12-07T01:11:36;18.50;;;10.07;;
29240;SDS011;16268;49.880;8.648;2022-12-07T01:14:01;16.45;;;9.80;;
29240;SDS011;16268;49.880;8.648;2022-12-07T01:16:28;17.67;;;10.25;;
29240;SDS011;16268;49.880;8.648;2022-12-07T01:18:55;15.20;;;9.38;;
29240;SDS011;16268;49.880;8.648;2022-12-07T01:21:26;17.30;;;9.82;;
29240;SDS011;16268;49.880;8.648;2022-12-07T01:24:01;16.98;;;10.20;;
29240;SDS011;16268;49.880;8.648;2022-12-07T01:26:27;19.25;;;9.55;;
29240;SDS011;16268;49.880;8.648;2022-12-07T01:28:53;17.27;;;10.07;;
29240;SDS011;16268;49.880;8.648;2022-12-07T01:31:21;17.45;;;10.52;;
29240;SDS011;16268;49.880;8.648;2022-12-07T01:33:52;19.35;;;10.15;;
29240;SDS011;16268;49.880;8.648;2022-12-07T01:36:23;17.98;;;10.40;;
29240;SDS011;16268;49.880;8.648;2022-12-07T01:38:55;17.55;;;10.55;;
29240;SDS011;16268;49.880;8.648;2022-12-07T01:41:23;16.17;;;9.05;;
29240;SDS011;16268;49.880;8.648;2022-12-07T01:46:38;17.45;;;10.07;;
29240;SDS011;16268;49.880;8.648;2022-12-07T01:49:05;15.10;;;9.85;;
29240;SDS011;16268;49.880;8.648;2022-12-07T01:51:34;16.45;;;9.80;;
29240;SDS011;16268;49.880;8.648;2022-12-07T01:54:01;15.50;;;9.50;;
29240;SDS011;16268;49.880;8.648;2022-12-07T01:56:27;17.02;;;9.35;;
29240;SDS011;16268;49.880;8.648;2022-12-07T01:58:55;15.32;;;10.02;;
29240;SDS011;16268;49.880;8.648;2022-12-07T02:01:23;20.10;;;10.45;;
29240;SDS011;16268;49.880;8.648;2022-12-07T02:03:49;15.95;;;9.50;;
29240;SDS011;16268;49.880;8.648;2022-12-07T02:06:16;16.08;;;9.55;;
29240;SDS011;16268;49.880;8.648;2022-12-07T02:08:45;17.55;;;9.63;;
29240;SDS011;16268;49.880;8.648;2022-12-07T02:11:11;17.17;;;9.90;;
29240;SDS011;16268;49.880;8.648;2022-12-07T02:13:38;18.35;;;10.43;;
29240;SDS011;16268;49.880;8.648;2022-12-07T02:27:41;15.93;;;9.80;;
29240;SDS011;16268;49.880;8.648;2022-12-07T02:30:19;18.23;;;9.55;;
29240;SDS011;16268;49.880;8.648;2022-12-07T02:37:52;17.35;;;9.88;;
29240;SDS011;16268;49.880;8.648;2022-12-07T02:40:31;17.42;;;9.30;;
29240;SDS011;16268;49.880;8.648;2022-12-07T02:45:37;15.55;;;9.52;;
29240;SDS011;16268;49.880;8.648;2022-12-07T02:48:05;14.50;;;9.20;;
29240;SDS011;16268;49.880;8.648;2022-12-07T02:50:33;15.88;;;9.30;;
29240;SDS011;16268;49.880;8.648;2022-12-07T02:52:59;15.40;;;9.30;;
29240;SDS011;16268;49.880;8.648;2022-12-07T02:55:26;19.17;;;10.25;;
29240;SDS011;16268;49.880;8.648;2022-12-07T02:58:03;18.65;;;9.63;;
29240;SDS011;16268;49.880;8.648;2022-12-07T03:00:52;15.73;;;9.70;;
29240;SDS011;16268;49.880;8.648;2022-12-07T03:03:28;16.05;;;9.93;;
29240;SDS011;16268;49.880;8.648;2022-12-07T03:06:06;16.13;;;10.00;;
29240;SDS011;16268;49.880;8.648;2022-12-07T03:08:57;16.35;;;9.57;;
29240;SDS011;16268;49.880;8.648;2022-12-07T03:14:25;18.95;;;10.40;;
29240;SDS011;16268;49.880;8.648;2022-12-07T03:17:08;17.17;;;9.70;;
29240;SDS011;16268;49.880;8.648;2022-12-07T03:19:40;15.90;;;9.55;;
29240;SDS011;16268;49.880;8.648;2022-12-07T03:22:07;15.45;;;9.43;;
29240;SDS011;16268;49.880;8.648;2022-12-07T03:24:41;18.23;;;10.32;;
29240;SDS011;16268;49.880;8.648;2022-12-07T03:27:13;17.73;;;10.25;;
29240;SDS011;16268;49.880;8.648;2022-12-07T03:29:52;15.30;;;9.70;;
29240;SDS011;16268;49.880;8.648;2022-12-07T03:32:32;15.95;;;9.57;;
29240;SDS011;16268;49.880;8.648;2022-12-07T03:37:34;14.18;;;8.80;;
29240;SDS011;16268;49.880;8.648;2022-12-07T03:40:17;15.65;;;9.10;;
29240;SDS011;16268;49.880;8.648;2022-12-07T03:42:51;17.08;;;8.75;;
29240;SDS011;16268;49.880;8.648;2022-12-07T03:45:17;16.67;;;9.25;;
29240;SDS011;16268;49.880;8.648;2022-12-07T03:47:50;16.20;;;9.30;;
29240;SDS011;16268;49.880;8.648;2022-12-07T03:50:28;14.73;;;9.38;;
29240;SDS011;16268;49.880;8.648;2022-12-07T03:53:15;16.88;;;9.68;;
29240;SDS011;16268;49.880;8.648;2022-12-07T03:56:01;16.88;;;9.70;;
29240;SDS011;16268;49.880;8.648;2022-12-07T03:58:27;16.95;;;9.55;;
29240;SDS011;16268;49.880;8.648;2022-12-07T04:00:54;16.50;;;9.55;;
29240;SDS011;16268;49.880;8.648;2022-12-07T04:03:20;16.17;;;9.35;;
29240;SDS011;16268;49.880;8.648;2022-12-07T04:05:48;18.27;;;9.48;;
29240;SDS011;16268;49.880;8.648;2022-12-07T04:08:14;17.73;;;9.63;;
29240;SDS011;16268;49.880;8.648;2022-12-07T04:10:40;19.35;;;10.07;;
29240;SDS011;16268;49.880;8.648;2022-12-07T04:13:05;15.63;;;9.50;;
29240;SDS011;16268;49.880;8.648;2022-12-07T04:15:31;16.10;;;9.32;;
29240;SDS011;16268;49.880;8.648;2022-12-07T04:17:56;18.50;;;10.15;;
29240;SDS011;16268;49.880;8.648;2022-12-07T04:20:22;18.17;;;10.02;;
29240;SDS011;16268;49.880;8.648;2022-12-07T04:22:48;19.75;;;9.80;;
29240;SDS011;16268;49.880;8.648;2022-12-07T04:25:14;18.50;;;10.05;;
29240;SDS011;16268;49.880;8.648;2022-12-07T04:27:40;17.98;;;10.15;;
29240;SDS011;16268;49.880;8.648;2022-12-07T04:30:06;14.88;;;9.15;;
29240;SDS011;16268;49.880;8.648;2022-12-07T04:32:32;14.75;;;9.00;;
29240;SDS011;16268;49.880;8.648;2022-12-07T04:34:57;18.17;;;9.65;;
29240;SDS011;16268;49.880;8.648;2022-12-07T04:37:23;15.73;;;9.07;;
29240;SDS011;16268;49.880;8.648;2022-12-07T04:39:49;15.98;;;9.35;;
29240;SDS011;16268;49.880;8.648;2022-12-07T04:42:15;19.13;;;10.05;;
29240;SDS011;16268;49.880;8.648;2022-12-07T04:44:40;17.02;;;8.93;;
29240;SDS011;16268;49.880;8.648;2022-12-07T04:47:06;18.70;;;9.63;;
29240;SDS011;16268;49.880;8.648;2022-12-07T04:49:32;16.80;;;9.73;;
29240;SDS011;16268;49.880;8.648;2022-12-07T04:51:57;16.20;;;9.23;;
29240;SDS011;16268;49.880;8.648;2022-12-07T04:54:23;17.05;;;9.90;;
29240;SDS011;16268;49.880;8.648;2022-12-07T04:56:49;17.10;;;10.57;;
29240;SDS011;16268;49.880;8.648;2022-12-07T04:59:14;17.00;;;10.30;;
29240;SDS011;16268;49.880;8.648;2022-12-07T05:01:41;17.45;;;9.90;;
29240;SDS011;16268;49.880;8.648;2022-12-07T05:04:08;15.32;;;9.88;;
29240;SDS011;16268;49.880;8.648;2022-12-07T05:06:34;17.23;;;9.85;;
29240;SDS011;16268;49.880;8.648;2022-12-07T05:09:00;16.02;;;9.38;;
29240;SDS011;16268;49.880;8.648;2022-12-07T05:11:26;17.35;;;9.45;;
29240;SDS011;16268;49.880;8.648;2022-12-07T05:14:09;15.80;;;10.15;;
29240;SDS011;16268;49.880;8.648;2022-12-07T05:16:42;16.13;;;9.40;;
29240;SDS011;16268;49.880;8.648;2022-12-07T05:19:09;14.25;;;8.85;;
29240;SDS011;16268;49.880;8.648;2022-12-07T05:21:35;16.35;;;9.38;;
29240;SDS011;16268;49.880;8.648;2022-12-07T05:24:02;16.48;;;9.73;;
29240;SDS011;16268;49.880;8.648;2022-12-07T05:26:28;16.98;;;9.80;;
29240;SDS011;16268;49.880;8.648;2022-12-07T05:28:54;17.85;;;9.68;;
29240;SDS011;16268;49.880;8.648;2022-12-07T05:31:22;17.60;;;9.80;;
29240;SDS011;16268;49.880;8.648;2022-12-07T05:33:48;15.80;;;8.95;;
29240;SDS011;16268;49.880;8.648;2022-12-07T05:36:14;17.38;;;10.13;;
29240;SDS011;16268;49.880;8.648;2022-12-07T05:38:40;15.30;;;9.00;;
29240;SDS011;16268;49.880;8.648;2022-12-07T05:41:06;15.38;;;9.43;;
29240;SDS011;16268;49.880;8.648;2022-12-07T05:43:53;15.73;;;9.35;;
29240;SDS011;16268;49.880;8.648;2022-12-07T05:46:19;16.10;;;9.35;;
29240;SDS011;16268;49.880;8.648;2022-12-07T05:48:44;16.08;;;9.40;;
29240;SDS011;16268;49.880;8.648;2022-12-07T05:51:10;16.35;;;10.00;;
29240;SDS011;16268;49.880;8.648;2022-12-07T05:53:35;17.45;;;10.60;;
29240;SDS011;16268;49.880;8.648;2022-12-07T05:56:01;15.85;;;9.07;;
29240;SDS011;16268;49.880;8.648;2022-12-07T05:58:26;16.20;;;9.65;;
29240;SDS011;16268;49.880;8.648;2022-12-07T06:01:10;16.00;;;9.18;;
29240;SDS011;16268;49.880;8.648;2022-12-07T06:03:36;17.85;;;9.50;;
29240;SDS011;16268;49.880;8.648;2022-12-07T06:06:02;14.27;;;8.77;;
29240;SDS011;16268;49.880;8.648;2022-12-07T06:08:27;16.80;;;9.27;;
29240;SDS011;16268;49.880;8.648;2022-12-07T06:10:56;17.73;;;9.60;;
29240;SDS011;16268;49.880;8.648;2022-12-07T06:13:40;16.40;;;9.75;;
29240;SDS011;16268;49.880;8.648;2022-12-07T06:16:06;17.02;;;9.80;;
29240;SDS011;16268;49.880;8.648;2022-12-07T06:18:32;16.27;;;9.77;;
29240;SDS011;16268;49.880;8.648;2022-12-07T06:20:57;15.13;;;9.15;;
29240;SDS011;16268;49.880;8.648;2022-12-07T06:23:23;15.60;;;8.85;;
29240;SDS011;16268;49.880;8.648;2022-12-07T06:25:48;15.52;;;9.52;;
29240;SDS011;16268;49.880;8.648;2022-12-07T06:28:14;16.45;;;9.30;;
29240;SDS011;16268;49.880;8.648;2022-12-07T06:30:39;19.23;;;9.70;;
29240;SDS011;16268;49.880;8.648;2022-12-07T06:33:05;15.20;;;9.23;;
29240;SDS011;16268;49.880;8.648;2022-12-07T06:35:32;16.45;;;8.93;;
29240;SDS011;16268;49.880;8.648;2022-12-07T06:37:58;16.25;;;9.40;;
29240;SDS011;16268;49.880;8.648;2022-12-07T06:40:23;15.70;;;9.35;;
29240;SDS011;16268;49.880;8.648;2022-12-07T06:42:49;15.48;;;9.13;;
29240;SDS011;16268;49.880;8.648;2022-12-07T06:45:14;16.33;;;9.48;;
29240;SDS011;16268;49.880;8.648;2022-12-07T06:47:40;16.48;;;9.55;;
29240;SDS011;16268;49.880;8.648;2022-12-07T06:50:06;14.63;;;9.40;;
29240;SDS011;16268;49.880;8.648;2022-12-07T06:52:32;16.60;;;9.38;;
29240;SDS011;16268;49.880;8.648;2022-12-07T06:54:58;16.08;;;9.35;;
29240;SDS011;16268;49.880;8.648;2022-12-07T06:57:24;17.40;;;8.75;;
29240;SDS011;16268;49.880;8.648;2022-12-07T06:59:50;16.65;;;9.20;;
29240;SDS011;16268;49.880;8.648;2022-12-07T07:02:16;16.02;;;9.52;;
29240;SDS011;16268;49.880;8.648;2022-12-07T07:04:42;15.85;;;9.65;;
29240;SDS011;16268;49.880;8.648;2022-12-07T07:07:07;15.82;;;9.75;;
29240;SDS011;16268;49.880;8.648;2022-12-07T07:09:33;16.30;;;9.68;;
29240;SDS011;16268;49.880;8.648;2022-12-07T07:12:01;17.08;;;10.20;;
29240;SDS011;16268;49.880;8.648;2022-12-07T07:14:27;16.98;;;9.98;;
29240;SDS011;16268;49.880;8.648;2022-12-07T07:16:52;15.45;;;9.90;;
29240;SDS011;16268;49.880;8.648;2022-12-07T07:19:18;17.23;;;9.98;;
29240;SDS011;16268;49.880;8.648;2022-12-07T07:21:43;16.90;;;10.27;;
29240;SDS011;16268;49.880;8.648;2022-12-07T07:24:09;15.55;;;9.60;;
29240;SDS011;16268;49.880;8.648;2022-12-07T07:26:35;18.67;;;10.60;;
29240;SDS011;16268;49.880;8.648;2022-12-07T07:29:00;15.00;;;9.65;;
29240;SDS011;16268;49.880;8.648;2022-12-07T07:31:26;16.85;;;10.13;;
29240;SDS011;16268;49.880;8.648;2022-12-07T07:33:51;16.50;;;9.52;;
29240;SDS011;16268;49.880;8.648;2022-12-07T07:36:17;17.50;;;9.80;;
29240;SDS011;16268;49.880;8.648;2022-12-07T07:38:43;18.33;;;10.70;;
29240;SDS011;16268;49.880;8.648;2022-12-07T07:41:08;17.33;;;10.05;;
29240;SDS011;16268;49.880;8.648;2022-12-07T07:43:34;16.25;;;10.07;;
29240;SDS011;16268;49.880;8.648;2022-12-07T07:46:02;15.27;;;9.60;;
29240;SDS011;16268;49.880;8.648;2022-12-07T07:48:29;17.33;;;9.88;;
29240;SDS011;16268;49.880;8.648;2022-12-07T07:50:55;16.60;;;10.25;;
29240;SDS011;16268;49.880;8.648;2022-12-07T07:53:20;17.10;;;10.10;;
29240;SDS011;16268;49.880;8.648;2022-12-07T07:55:53;18.17;;;10.27;;
29240;SDS011;16268;49.880;8.648;2022-12-07T07:58:20;17.88;;;10.48;;
29240;SDS011;16268;49.880;8.648;2022-12-07T08:00:46;17.02;;;10.10;;
29240;SDS011;16268;49.880;8.648;2022-12-07T08:03:11;14.68;;;9.52;;
29240;SDS011;16268;49.880;8.648;2022-12-07T08:05:37;16.85;;;9.68;;
29240;SDS011;16268;49.880;8.648;2022-12-07T08:08:03;15.82;;;10.07;;
29240;SDS011;16268;49.880;8.648;2022-12-07T08:10:29;17.10;;;9.35;;
29240;SDS011;16268;49.880;8.648;2022-12-07T08:12:57;15.45;;;10.13;;
29240;SDS011;16268;49.880;8.648;2022-12-07T08:15:44;15.30;;;10.07;;
29240;SDS011;16268;49.880;8.648;2022-12-07T08:18:11;16.25;;;9.80;;
29240;SDS011;16268;49.880;8.648;2022-12-07T08:20:39;18.55;;;9.70;;
29240;SDS011;16268;49.880;8.648;2022-12-07T08:23:08;16.80;;;10.27;;
29240;SDS011;16268;49.880;8.648;2022-12-07T08:25:34;17.73;;;10.43;;
29240;SDS011;16268;49.880;8.648;2022-12-07T08:28:00;18.50;;;10.43;;
29240;SDS011;16268;49.880;8.648;2022-12-07T08:30:26;16.85;;;10.10;;
29240;SDS011;16268;49.880;8.648;2022-12-07T08:32:53;15.82;;;9.63;;
29240;SDS011;16268;49.880;8.648;2022-12-07T08:35:18;17.75;;;9.82;;
29240;SDS011;16268;49.880;8.648;2022-12-07T08:37:44;17.67;;;9.95;;
29240;SDS011;16268;49.880;8.648;2022-12-07T08:40:10;16.58;;;9.60;;
29240;SDS011;16268;49.880;8.648;2022-12-07T08:42:40;16.77;;;9.57;;
29240;SDS011;16268;49.880;8.648;2022-12-07T08:45:14;17.67;;;9.70;;
29240;SDS011;16268;49.880;8.648;2022-12-07T08:47:41;15.85;;;9.68;;
29240;SDS011;16268;49.880;8.648;2022-12-07T08:50:13;17.13;;;10.27;;
29240;SDS011;16268;49.880;8.648;2022-12-07T08:52:39;16.00;;;9.88;;
29240;SDS011;16268;49.880;8.648;2022-12-07T08:55:07;16.92;;;10.07;;
29240;SDS011;16268;49.880;8.648;2022-12-07T08:57:35;15.90;;;9.43;;
29240;SDS011;16268;49.880;8.648;2022-12-07T09:00:03;16.45;;;9.55;;
29240;SDS011;16268;49.880;8.648;2022-12-07T09:02:32;15.82;;;10.25;;
29240;SDS011;16268;49.880;8.648;2022-12-07T09:04:58;16.90;;;10.63;;
29240;SDS011;16268;49.880;8.648;2022-12-07T09:07:24;18.40;;;10.55;;
29240;SDS011;16268;49.880;8.648;2022-12-07T09:09:51;15.75;;;10.18;;
29240;SDS011;16268;49.880;8.648;2022-12-07T09:12:17;17.88;;;10.77;;
29240;SDS011;16268;49.880;8.648;2022-12-07T09:14:42;16.40;;;9.68;;
29240;SDS011;16268;49.880;8.648;2022-12-07T09:17:09;17.23;;;10.48;;
29240;SDS011;16268;49.880;8.648;2022-12-07T09:19:36;17.92;;;10.05;;
29240;SDS011;16268;49.880;8.648;2022-12-07T09:22:02;16.08;;;9.30;;
29240;SDS011;16268;49.880;8.648;2022-12-07T09:24:29;16.75;;;9.90;;
29240;SDS011;16268;49.880;8.648;2022-12-07T09:26:58;14.35;;;9.05;;
29240;SDS011;16268;49.880;8.648;2022-12-07T09:29:24;16.70;;;9.93;;
29240;SDS011;16268;49.880;8.648;2022-12-07T09:31:50;16.75;;;10.00;;
29240;SDS011;16268;49.880;8.648;2022-12-07T09:34:18;15.48;;;9.35;;
29240;SDS011;16268;49.880;8.648;2022-12-07T09:36:45;15.45;;;9.23;;
29240;SDS011;16268;49.880;8.648;2022-12-07T09:39:10;15.45;;;9.05;;
29240;SDS011;16268;49.880;8.648;2022-12-07T09:41:40;13.00;;;8.82;;
29240;SDS011;16268;49.880;8.648;2022-12-07T09:44:11;13.77;;;8.77;;
29240;SDS011;16268;49.880;8.648;2022-12-07T09:46:40;13.30;;;8.82;;
29240;SDS011;16268;49.880;8.648;2022-12-07T09:49:11;13.90;;;9.23;;
29240;SDS011;16268;49.880;8.648;2022-12-07T09:51:59;16.17;;;8.73;;
29240;SDS011;16268;49.880;8.648;2022-12-07T09:54:46;15.32;;;8.80;;
29240;SDS011;16268;49.880;8.648;2022-12-07T09:57:13;14.38;;;8.70;;
29240;SDS011;16268;49.880;8.648;2022-12-07T09:59:40;14.68;;;9.10;;
29240;SDS011;16268;49.880;8.648;2022-12-07T10:05:00;14.02;;;8.90;;
29240;SDS011;16268;49.880;8.648;2022-12-07T10:07:26;14.98;;;9.50;;
29240;SDS011;16268;49.880;8.648;2022-12-07T10:09:52;15.73;;;8.82;;
29240;SDS011;16268;49.880;8.648;2022-12-07T10:12:17;18.27;;;9.27;;
29240;SDS011;16268;49.880;8.648;2022-12-07T10:14:53;15.98;;;9.60;;
29240;SDS011;16268;49.880;8.648;2022-12-07T10:17:32;16.25;;;9.73;;
29240;SDS011;16268;49.880;8.648;2022-12-07T10:20:24;18.08;;;10.25;;
29240;SDS011;16268;49.880;8.648;2022-12-07T10:22:59;17.17;;;10.82;;
29240;SDS011;16268;49.880;8.648;2022-12-07T10:25:27;19.38;;;10.18;;
29240;SDS011;16268;49.880;8.648;2022-12-07T10:27:58;19.08;;;10.25;;
29240;SDS011;16268;49.880;8.648;2022-12-07T10:30:26;18.27;;;10.82;;
29240;SDS011;16268;49.880;8.648;2022-12-07T10:32:52;19.88;;;10.75;;
29240;SDS011;16268;49.880;8.648;2022-12-07T10:35:25;18.02;;;11.02;;
29240;SDS011;16268;49.880;8.648;2022-12-07T10:37:53;16.85;;;10.10;;
29240;SDS011;16268;49.880;8.648;2022-12-07T10:43:31;18.10;;;10.70;;
29240;SDS011;16268;49.880;8.648;2022-12-07T10:51:07;17.60;;;10.45;;
29240;SDS011;16268;49.880;8.648;2022-12-07T10:56:24;16.25;;;9.00;;
29240;SDS011;16268;49.880;8.648;2022-12-07T11:02:17;15.07;;;8.90;;
29240;SDS011;16268;49.880;8.648;2022-12-07T11:07:36;12.85;;;8.13;;
29240;SDS011;16268;49.880;8.648;2022-12-07T11:13:05;13.55;;;7.90;;
29240;SDS011;16268;49.880;8.648;2022-12-07T11:15:55;13.30;;;7.82;;
29240;SDS011;16268;49.880;8.648;2022-12-07T11:24:12;10.25;;;6.80;;
29240;SDS011;16268;49.880;8.648;2022-12-07T11:32:14;12.35;;;6.13;;
29240;SDS011;16268;49.880;8.648;2022-12-07T11:42:57;12.65;;;5.90;;
29240;SDS011;16268;49.880;8.648;2022-12-07T11:45:27;11.00;;;5.47;;
29240;SDS011;16268;49.880;8.648;2022-12-07T11:48:01;12.20;;;5.65;;
29240;SDS011;16268;49.880;8.648;2022-12-07T11:53:21;11.23;;;5.43;;
29240;SDS011;16268;49.880;8.648;2022-12-07T11:56:02;11.02;;;5.03;;
29240;SDS011;16268;49.880;8.648;2022-12-07T11:58:51;9.00;;;4.65;;
29240;SDS011;16268;49.880;8.648;2022-12-07T12:03:58;11.93;;;4.85;;
29240;SDS011;16268;49.880;8.648;2022-12-07T12:06:43;9.13;;;4.68;;
29240;SDS011;16268;49.880;8.648;2022-12-07T12:23:19;10.40;;;4.70;;
29240;SDS011;16268;49.880;8.648;2022-12-07T12:25:55;9.98;;;3.65;;
29240;SDS011;16268;49.880;8.648;2022-12-07T12:28:27;9.43;;;4.20;;
29240;SDS011;16268;49.880;8.648;2022-12-07T12:33:30;8.60;;;3.92;;
29240;SDS011;16268;49.880;8.648;2022-12-07T12:46:46;7.90;;;3.30;;
29240;SDS011;16268;49.880;8.648;2022-12-07T13:02:28;9.70;;;3.10;;
29240;SDS011;16268;49.880;8.648;2022-12-07T13:04:55;9.32;;;4.28;;
29240;SDS011;16268;49.880;8.648;2022-12-07T13:15:38;7.18;;;3.22;;
29240;SDS011;16268;49.880;8.648;2022-12-07T13:21:02;8.32;;;2.88;;
29240;SDS011;16268;49.880;8.648;2022-12-07T13:26:12;6.35;;;2.65;;
29240;SDS011;16268;49.880;8.648;2022-12-07T13:28:48;8.18;;;2.40;;
29240;SDS011;16268;49.880;8.648;2022-12-07T13:31:31;9.30;;;3.25;;
29240;SDS011;16268;49.880;8.648;2022-12-07T13:33:57;9.88;;;3.28;;
29240;SDS011;16268;49.880;8.648;2022-12-07T13:36:28;6.88;;;3.28;;
29240;SDS011;16268;49.880;8.648;2022-12-07T13:39:09;6.82;;;2.97;;
29240;SDS011;16268;49.880;8.648;2022-12-07T13:41:41;8.65;;;2.75;;
29240;SDS011;16268;49.880;8.648;2022-12-07T13:44:14;7.37;;;2.40;;
29240;SDS011;16268;49.880;8.648;2022-12-07T13:46:51;8.27;;;2.60;;
29240;SDS011;16268;49.880;8.648;2022-12-07T13:49:20;6.40;;;3.05;;
29240;SDS011;16268;49.880;8.648;2022-12-07T13:51:50;8.40;;;3.10;;
29240;SDS011;16268;49.880;8.648;2022-12-07T13:54:17;8.10;;;3.25;;
29240;SDS011;16268;49.880;8.648;2022-12-07T13:56:44;10.40;;;2.90;;
29240;SDS011;16268;49.880;8.648;2022-12-07T13:59:18;8.45;;;2.97;;
29240;SDS011;16268;49.880;8.648;2022-12-07T14:01:46;6.68;;;2.70;;
29240;SDS011;16268;49.880;8.648;2022-12-07T14:04:28;7.82;;;2.45;;
29240;SDS011;16268;49.880;8.648;2022-12-07T14:06:56;9.55;;;3.63;;
29240;SDS011;16268;49.880;8.648;2022-12-07T14:09:23;9.20;;;3.63;;
29240;SDS011;16268;49.880;8.648;2022-12-07T14:11:51;8.38;;;3.70;;
29240;SDS011;16268;49.880;8.648;2022-12-07T14:14:26;8.98;;;3.42;;
29240;SDS011;16268;49.880;8.648;2022-12-07T14:17:16;11.65;;;3.50;;
29240;SDS011;16268;49.880;8.648;2022-12-07T14:19:43;8.73;;;3.00;;
29240;SDS011;16268;49.880;8.648;2022-12-07T14:22:19;8.57;;;3.10;;
29240;SDS011;16268;49.880;8.648;2022-12-07T14:27:34;11.13;;;3.70;;
29240;SDS011;16268;49.880;8.648;2022-12-07T14:30:01;7.57;;;3.35;;
29240;SDS011;16268;49.880;8.648;2022-12-07T14:32:29;10.95;;;3.40;;
29240;SDS011;16268;49.880;8.648;2022-12-07T14:35:00;10.60;;;2.72;;
29240;SDS011;16268;49.880;8.648;2022-12-07T14:37:29;6.97;;;2.58;;
29240;SDS011;16268;49.880;8.648;2022-12-07T14:39:55;9.20;;;2.80;;
29240;SDS011;16268;49.880;8.648;2022-12-07T14:42:21;5.53;;;2.75;;
29240;SDS011;16268;49.880;8.648;2022-12-07T14:44:49;8.43;;;2.75;;
29240;SDS011;16268;49.880;8.648;2022-12-07T14:47:15;7.85;;;2.80;;
29240;SDS011;16268;49.880;8.648;2022-12-07T14:49:41;7.80;;;2.92;;
29240;SDS011;16268;49.880;8.648;2022-12-07T14:52:08;9.65;;;4.05;;
29240;SDS011;16268;49.880;8.648;2022-12-07T14:54:39;15.43;;;5.75;;
29240;SDS011;16268;49.880;8.648;2022-12-07T14:57:07;14.32;;;5.10;;
29240;SDS011;16268;49.880;8.648;2022-12-07T14:59:34;9.88;;;4.53;;
29240;SDS011;16268;49.880;8.648;2022-12-07T15:02:00;11.57;;;5.65;;
29240;SDS011;16268;49.880;8.648;2022-12-07T15:04:25;15.60;;;5.60;;
29240;SDS011;16268;49.880;8.648;2022-12-07T15:06:55;11.32;;;4.25;;
29240;SDS011;16268;49.880;8.648;2022-12-07T15:09:24;12.05;;;3.78;;
29240;SDS011;16268;49.880;8.648;2022-12-07T15:11:50;8.50;;;2.95;;
29240;SDS011;16268;49.880;8.648;2022-12-07T15:14:16;6.18;;;2.58;;
29240;SDS011;16268;49.880;8.648;2022-12-07T15:16:42;8.70;;;3.35;;
29240;SDS011;16268;49.880;8.648;2022-12-07T15:19:14;8.43;;;2.53;;
29240;SDS011;16268;49.880;8.648;2022-12-07T15:21:44;6.57;;;2.33;;
29240;SDS011;16268;49.880;8.648;2022-12-07T15:24:11;7.07;;;1.95;;
29240;SDS011;16268;49.880;8.648;2022-12-07T15:26:37;4.55;;;1.95;;
29240;SDS011;16268;49.880;8.648;2022-12-07T15:29:03;6.28;;;2.10;;
29240;SDS011;16268;49.880;8.648;2022-12-07T15:31:29;5.68;;;2.10;;
29240;SDS011;16268;49.880;8.648;2022-12-07T15:33:55;7.15;;;2.58;;
29240;SDS011;16268;49.880;8.648;2022-12-07T15:36:22;7.72;;;3.38;;
29240;SDS011;16268;49.880;8.648;2022-12-07T15:38:49;10.52;;;3.67;;
29240;SDS011;16268;49.880;8.648;2022-12-07T15:41:15;7.32;;;2.65;;
29240;SDS011;16268;49.880;8.648;2022-12-07T15:43:42;9.55;;;3.72;;
29240;SDS011;16268;49.880;8.648;2022-12-07T15:46:33;7.95;;;3.17;;
29240;SDS011;16268;49.880;8.648;2022-12-07T15:49:04;11.75;;;3.00;;
29240;SDS011;16268;49.880;8.648;2022-12-07T15:51:33;6.32;;;3.05;;
29240;SDS011;16268;49.880;8.648;2022-12-07T15:53:59;8.18;;;2.83;;
29240;SDS011;16268;49.880;8.648;2022-12-07T15:56:25;7.05;;;2.80;;
29240;SDS011;16268;49.880;8.648;2022-12-07T15:58:50;7.80;;;3.10;;
29240;SDS011;16268;49.880;8.648;2022-12-07T16:01:16;7.35;;;3.25;;
29240;SDS011;16268;49.880;8.648;2022-12-07T16:03:44;7.45;;;3.30;;
29240;SDS011;16268;49.880;8.648;2022-12-07T16:06:11;7.63;;;3.50;;
29240;SDS011;16268;49.880;8.648;2022-12-07T16:08:41;7.60;;;3.22;;
29240;SDS011;16268;49.880;8.648;2022-12-07T16:11:08;9.20;;;3.65;;
29240;SDS011;16268;49.880;8.648;2022-12-07T16:13:34;12.15;;;3.72;;
29240;SDS011;16268;49.880;8.648;2022-12-07T16:16:04;8.63;;;3.30;;
29240;SDS011;16268;49.880;8.648;2022-12-07T16:18:31;8.07;;;3.28;;
29240;SDS011;16268;49.880;8.648;2022-12-07T16:20:56;9.20;;;3.58;;
29240;SDS011;16268;49.880;8.648;2022-12-07T16:23:22;9.20;;;3.42;;
29240;SDS011;16268;49.880;8.648;2022-12-07T16:25:48;6.18;;;3.15;;
29240;SDS011;16268;49.880;8.648;2022-12-07T16:28:14;8.70;;;2.92;;
29240;SDS011;16268;49.880;8.648;2022-12-07T16:30:39;8.57;;;2.20;;
29240;SDS011;16268;49.880;8.648;2022-12-07T16:33:05;6.93;;;2.47;;
29240;SDS011;16268;49.880;8.648;2022-12-07T16:35:31;8.80;;;2.80;;
29240;SDS011;16268;49.880;8.648;2022-12-07T16:37:56;8.13;;;2.58;;
29240;SDS011;16268;49.880;8.648;2022-12-07T16:40:22;8.75;;;2.20;;
29240;SDS011;16268;49.880;8.648;2022-12-07T16:42:47;8.38;;;2.00;;
29240;SDS011;16268;49.880;8.648;2022-12-07T16:45:13;6.50;;;2.42;;
29240;SDS011;16268;49.880;8.648;2022-12-07T16:47:38;6.88;;;1.95;;
29240;SDS011;16268;49.880;8.648;2022-12-07T16:50:05;6.60;;;1.67;;
29240;SDS011;16268;49.880;8.648;2022-12-07T16:52:32;7.60;;;2.15;;
29240;SDS011;16268;49.880;8.648;2022-12-07T16:54:58;5.28;;;1.92;;
29240;SDS011;16268;49.880;8.648;2022-12-07T16:57:23;6.10;;;2.28;;